Accueil
METAR-TAF:

METAR-TAF

Aéroports :

Aéroport d'Annecy Haute-Savoie Mont-Blanc

Annecy, France

latitude: 45-55-45N, longitude: 006-05-56E, altitude: 463 m

Observation

Le bulletin a été fait il y a 25 minutes, à 20:30 UTC
Vent 3 kt de nord-est
Température 0°C
Humidité 86%
Pression 1014 hPa
Visibilité: 7000 m

METAR: LFLP 202030Z AUTO 05003KT 7000 NSC 00/M02 Q1014

Heure: 21:55 (20:55 UTC)

Prévision

Le bulletin a été fait il y a 6 heures et 55 minutes, à 14:00 UTC
Prévision valable du 20 à 15 UTC au 21 à 15 UTC
Vent 3 kt de direction variable
Visibilité 10 km ou plus
Nuages fragmentés à une hauteur de 8000 ft
Temporairement
du 20 à 17 UTC au 21 à 15 UTC
Ciel couvert à une hauteur de 6000 ft

TAF: LFLP 201400Z 2015/2115 VRB03KT 9999 BKN080 TEMPO 2017/2115 OVC060

Observations et prévisions météorologiques de plus de 4000 aéroports (messages METAR et TAF).

Les stations disponibles sont représentées par des disques jaunes et rouges sur la carte.

Passer la souris dessus pour voir le nom de la station.

Cliquer dessus pour voir les observations et prévisions météorologiques.

Pour changer de carte: cliquez sur les boutons verts avec une croix noire pour zoomer, sur le bouton vert avec un tiret pour effectuer un zoom arrière, ou sur les flèches vertes pour les cartes adjacentes.


METAR-TAF: